createdAt,value
2018-04-19T00:02:07.337Z,10.60
2018-04-19T00:04:42.093Z,10.60
2018-04-19T00:07:09.605Z,10.50
2018-04-19T00:09:37.165Z,10.50
2018-04-19T00:12:04.664Z,10.50
2018-04-19T00:14:32.908Z,10.40
2018-04-19T00:17:00.386Z,10.40
2018-04-19T00:19:35.028Z,10.40
2018-04-19T00:22:02.516Z,10.30
2018-04-19T00:24:30.016Z,10.30
2018-04-19T00:26:57.485Z,10.40
2018-04-19T00:29:25.825Z,10.40
2018-04-19T00:31:53.396Z,10.40
2018-04-19T00:34:20.894Z,10.30
2018-04-19T00:36:48.383Z,10.20
2018-04-19T00:39:16.046Z,10.20
2018-04-19T00:41:43.499Z,10.10
2018-04-19T00:44:10.993Z,10.10
2018-04-19T00:46:39.384Z,10.10
2018-04-19T00:49:06.880Z,10.00
2018-04-19T00:51:38.318Z,9.90
2018-04-19T00:54:05.982Z,9.90
2018-04-19T00:56:35.132Z,9.90
2018-04-19T00:59:02.597Z,9.90
2018-04-19T01:01:30.364Z,9.90
2018-04-19T01:04:00.265Z,9.90
2018-04-19T01:06:31.325Z,9.90
2018-04-19T01:09:01.244Z,9.80
2018-04-19T01:11:30.441Z,9.80
2018-04-19T01:13:57.904Z,9.80
2018-04-19T01:16:25.652Z,9.80
2018-04-19T01:18:53.112Z,9.70
2018-04-19T01:21:20.577Z,9.80
2018-04-19T01:23:48.041Z,9.70
2018-04-19T01:26:15.501Z,9.70
2018-04-19T01:28:43.693Z,9.70
2018-04-19T01:31:11.425Z,9.60
2018-04-19T01:33:39.686Z,9.50
2018-04-19T01:36:21.928Z,9.50
2018-04-19T01:38:49.420Z,9.50
2018-04-19T01:41:16.883Z,9.50
2018-04-19T01:43:45.872Z,9.40
2018-04-19T01:46:13.376Z,9.40
2018-04-19T01:48:40.843Z,9.40
2018-04-19T01:51:12.386Z,9.40
2018-04-19T01:53:40.101Z,9.50
2018-04-19T01:56:07.631Z,9.40
2018-04-19T01:58:35.599Z,9.40
2018-04-19T02:01:03.111Z,9.30
2018-04-19T02:03:30.573Z,9.30
2018-04-19T02:05:58.073Z,9.30
2018-04-19T02:08:36.873Z,9.20
2018-04-19T02:11:04.325Z,9.20
2018-04-19T02:13:31.862Z,9.20
2018-04-19T02:16:00.035Z,9.10
2018-04-19T02:18:27.507Z,9.10
2018-04-19T02:20:54.982Z,9.10
2018-04-19T02:23:22.445Z,9.00
2018-04-19T02:25:49.905Z,8.90
2018-04-19T02:28:18.178Z,8.90
2018-04-19T02:30:45.669Z,8.90
2018-04-19T02:33:14.435Z,8.80
2018-04-19T02:35:41.929Z,8.80
2018-04-19T02:38:13.194Z,8.80
2018-04-19T02:40:40.677Z,8.80
2018-04-19T02:43:08.682Z,8.80
2018-04-19T02:45:36.160Z,8.70
2018-04-19T02:48:03.673Z,8.60
2018-04-19T02:50:31.214Z,8.60
2018-04-19T02:53:05.873Z,8.60
2018-04-19T02:55:34.207Z,8.50
2018-04-19T02:58:01.680Z,8.50
2018-04-19T03:00:29.170Z,8.50
2018-04-19T03:02:56.630Z,8.50
2018-04-19T03:05:24.110Z,8.40
2018-04-19T03:07:54.997Z,8.40
2018-04-19T03:10:22.482Z,8.40
2018-04-19T03:12:49.964Z,8.30
2018-04-19T03:15:18.142Z,8.30
2018-04-19T03:17:45.593Z,8.30
2018-04-19T03:20:13.118Z,8.20
2018-04-19T03:22:44.928Z,8.10
2018-04-19T03:25:13.980Z,8.10
2018-04-19T03:27:41.550Z,8.10
2018-04-19T03:30:08.998Z,8.10
2018-04-19T03:32:36.503Z,8.10
2018-04-19T03:35:03.964Z,8.10
2018-04-19T03:37:32.223Z,8.10
2018-04-19T03:39:59.680Z,8.10
2018-04-19T03:42:27.169Z,8.10
2018-04-19T03:44:54.626Z,8.10
2018-04-19T03:47:22.102Z,8.00
2018-04-19T03:49:52.004Z,8.00
2018-04-19T03:52:19.655Z,8.00
2018-04-19T03:54:47.631Z,8.00
2018-04-19T03:57:16.041Z,7.90
2018-04-19T03:59:43.659Z,7.90
2018-04-19T04:02:11.151Z,7.90
2018-04-19T04:04:39.387Z,7.90
2018-04-19T04:07:06.872Z,7.90
2018-04-19T04:09:34.341Z,7.90
2018-04-19T04:12:02.584Z,7.90
2018-04-19T04:14:30.225Z,7.90
2018-04-19T04:17:09.315Z,8.00
2018-04-19T04:19:48.571Z,8.00
2018-04-19T04:22:27.824Z,8.00
2018-04-19T04:24:56.136Z,8.00
2018-04-19T04:27:23.622Z,8.00
2018-04-19T04:29:51.120Z,7.90
2018-04-19T04:32:19.525Z,7.90
2018-04-19T04:34:47.015Z,8.00
2018-04-19T04:37:14.492Z,8.00
2018-04-19T04:39:41.968Z,8.00
2018-04-19T04:42:09.434Z,8.00
2018-04-19T04:44:36.918Z,8.10
2018-04-19T04:47:04.376Z,8.10
2018-04-19T04:49:31.945Z,8.20
2018-04-19T04:51:59.409Z,8.30
2018-04-19T04:54:26.875Z,8.40
2018-04-19T04:56:54.378Z,8.90
2018-04-19T04:59:22.748Z,9.60
2018-04-19T05:01:50.246Z,10.40
2018-04-19T05:04:17.754Z,11.00
2018-04-19T05:06:45.272Z,11.80
2018-04-19T05:09:12.725Z,12.30
2018-04-19T05:11:40.182Z,12.50
2018-04-19T05:14:08.528Z,13.10
2018-04-19T05:16:36.739Z,13.10
2018-04-19T05:19:04.266Z,13.60
2018-04-19T05:21:31.782Z,14.00
2018-04-19T05:23:59.267Z,14.20
2018-04-19T05:26:26.741Z,14.20
2018-04-19T05:28:54.258Z,14.70
2018-04-19T05:31:21.844Z,15.00
2018-04-19T05:33:49.592Z,15.70
2018-04-19T05:36:17.091Z,16.20
2018-04-19T05:38:44.561Z,16.30
2018-04-19T05:41:16.319Z,17.00
2018-04-19T05:43:44.701Z,17.20
2018-04-19T05:46:12.167Z,17.60
2018-04-19T05:48:39.661Z,17.80
2018-04-19T05:51:07.132Z,17.60
2018-04-19T05:53:34.602Z,17.30
2018-04-19T05:56:02.102Z,17.20
2018-04-19T05:58:29.589Z,17.50
2018-04-19T06:00:57.046Z,17.30
2018-04-19T06:03:24.596Z,17.20
2018-04-19T06:05:53.750Z,15.70
2018-04-19T06:08:21.206Z,15.70
2018-04-19T06:10:58.979Z,15.20
2018-04-19T06:13:26.434Z,14.60
2018-04-19T06:15:55.053Z,13.90
2018-04-19T06:18:24.214Z,13.80
2018-04-19T06:20:51.663Z,13.80
2018-04-19T06:23:19.224Z,13.50
2018-04-19T06:25:46.691Z,13.40
2018-04-19T06:28:14.234Z,13.40
2018-04-19T06:30:41.727Z,13.30
2018-04-19T06:33:09.188Z,13.30
2018-04-19T06:35:36.682Z,13.50
2018-04-19T06:38:04.165Z,13.50
2018-04-19T06:40:31.652Z,13.50
2018-04-19T06:42:59.437Z,13.60
2018-04-19T06:45:28.117Z,13.70
2018-04-19T06:47:55.679Z,13.80
2018-04-19T06:50:23.233Z,13.80
2018-04-19T06:52:50.725Z,13.90
2018-04-19T06:55:18.261Z,13.90
2018-04-19T06:57:49.814Z,14.00
2018-04-19T07:00:17.365Z,14.20
2018-04-19T07:02:44.819Z,14.30
2018-04-19T07:05:12.287Z,14.40
2018-04-19T07:07:41.438Z,14.60
2018-04-19T07:10:08.940Z,14.60
2018-04-19T07:12:36.421Z,14.70
2018-04-19T07:15:03.906Z,14.80
2018-04-19T07:17:31.396Z,15.00
2018-04-19T07:19:58.876Z,15.10
2018-04-19T07:22:26.373Z,15.20
2018-04-19T07:24:53.884Z,15.30
2018-04-19T07:27:21.353Z,15.40
2018-04-19T07:29:49.147Z,15.40
2018-04-19T07:32:16.662Z,15.50
2018-04-19T07:34:44.482Z,15.60
2018-04-19T07:37:12.099Z,15.70
2018-04-19T07:39:39.837Z,15.80
2018-04-19T07:42:07.320Z,15.90
2018-04-19T07:44:35.574Z,16.10
2018-04-19T07:47:04.194Z,16.10
2018-04-19T07:49:31.710Z,16.10
2018-04-19T07:51:59.160Z,16.30
2018-04-19T07:54:26.664Z,16.40
2018-04-19T07:56:54.108Z,16.50
2018-04-19T07:59:21.756Z,16.50
2018-04-19T08:01:49.295Z,16.60
2018-04-19T08:04:17.539Z,16.70
2018-04-19T08:06:45.157Z,16.80
2018-04-19T08:09:13.082Z,16.90
2018-04-19T08:11:40.588Z,17.00
2018-04-19T08:14:08.813Z,17.30
2018-04-19T08:16:36.616Z,17.30
2018-04-19T08:19:04.107Z,17.40
2018-04-19T08:21:31.660Z,17.50
2018-04-19T08:23:59.202Z,17.80
2018-04-19T08:26:26.891Z,17.90
2018-04-19T08:28:54.363Z,18.10
2018-04-19T08:31:21.862Z,18.30
2018-04-19T08:33:50.090Z,18.50
2018-04-19T08:36:17.531Z,18.70
2018-04-19T08:38:45.763Z,19.00
2018-04-19T08:41:13.262Z,19.00
2018-04-19T08:43:44.412Z,19.20
2018-04-19T08:46:12.195Z,19.20
2018-04-19T08:48:39.661Z,19.30
2018-04-19T08:51:07.144Z,19.40
2018-04-19T08:53:34.624Z,19.60
2018-04-19T08:56:02.102Z,19.60
2018-04-19T08:58:33.988Z,19.70
2018-04-19T09:01:01.447Z,19.80
2018-04-19T09:03:29.080Z,19.90
2018-04-19T09:05:56.581Z,19.90
2018-04-19T09:08:24.155Z,20.00
2018-04-19T09:10:51.690Z,20.10
2018-04-19T09:13:19.162Z,20.20
2018-04-19T09:15:46.652Z,20.30
2018-04-19T09:18:14.106Z,20.30
2018-04-19T09:20:41.596Z,20.50
2018-04-19T09:23:09.185Z,20.50
2018-04-19T09:25:36.675Z,20.60
2018-04-19T09:28:04.157Z,20.70
2018-04-19T09:30:32.267Z,20.70
2018-04-19T09:32:59.780Z,20.80
2018-04-19T09:35:27.300Z,20.90
2018-04-19T09:37:54.810Z,21.00
2018-04-19T09:40:22.295Z,21.10
2018-04-19T09:42:49.825Z,21.20
2018-04-19T09:45:18.060Z,21.60
2018-04-19T09:47:45.698Z,21.60
2018-04-19T09:50:13.164Z,21.60
2018-04-19T09:52:40.641Z,21.80
2018-04-19T09:55:08.817Z,21.90
2018-04-19T09:57:36.308Z,22.10
2018-04-19T10:00:03.803Z,22.20
2018-04-19T10:02:38.425Z,22.30
2018-04-19T10:05:05.949Z,22.40
2018-04-19T10:07:33.476Z,22.50
2018-04-19T10:10:00.954Z,22.60
2018-04-19T10:12:28.407Z,22.70
2018-04-19T10:14:55.908Z,22.70
2018-04-19T10:17:23.409Z,22.70
2018-04-19T10:19:50.887Z,22.80
2018-04-19T10:22:19.097Z,22.90
2018-04-19T10:24:46.560Z,22.90
2018-04-19T10:27:14.065Z,23.00
2018-04-19T10:29:41.540Z,23.00
2018-04-19T10:32:10.101Z,22.80
2018-04-19T10:34:39.287Z,22.70
2018-04-19T10:37:06.743Z,22.70
2018-04-19T10:39:34.205Z,22.70
2018-04-19T10:42:01.697Z,22.70
2018-04-19T10:44:29.177Z,22.70
2018-04-19T10:46:57.566Z,22.80
2018-04-19T10:49:25.063Z,22.80
2018-04-19T10:51:52.554Z,22.90
2018-04-19T10:54:20.908Z,23.20
2018-04-19T10:56:49.206Z,23.20
2018-04-19T10:59:17.425Z,23.20
2018-04-19T11:01:44.925Z,23.20
2018-04-19T11:04:12.587Z,23.10
2018-04-19T11:06:40.295Z,23.10
2018-04-19T11:09:07.780Z,23.20
2018-04-19T11:11:36.101Z,23.20
2018-04-19T11:14:03.554Z,23.30
2018-04-19T11:16:34.820Z,23.40
2018-04-19T11:19:02.293Z,23.50
2018-04-19T11:21:29.853Z,23.60
2018-04-19T11:23:57.327Z,23.70
2018-04-19T11:26:26.258Z,23.70
2018-04-19T11:28:53.937Z,23.60
2018-04-19T11:31:21.393Z,23.70
2018-04-19T11:33:48.887Z,23.90
2018-04-19T11:36:16.362Z,23.90
2018-04-19T11:38:44.548Z,24.00
2018-04-19T11:41:12.027Z,24.10
2018-04-19T11:43:39.483Z,24.20
2018-04-19T11:46:11.029Z,24.30
2018-04-19T11:48:38.481Z,24.30
2018-04-19T11:51:06.007Z,24.20
2018-04-19T11:53:34.130Z,24.30
2018-04-19T11:56:01.601Z,24.40
2018-04-19T11:58:29.148Z,24.50
2018-04-19T12:00:56.670Z,24.50
2018-04-19T12:03:27.330Z,24.60
2018-04-19T12:05:55.603Z,24.60
2018-04-19T12:08:23.727Z,24.60
2018-04-19T12:10:51.257Z,24.70
2018-04-19T12:13:18.740Z,24.70
2018-04-19T12:15:46.233Z,24.70
2018-04-19T12:18:13.700Z,24.70
2018-04-19T12:20:41.168Z,24.70
2018-04-19T12:23:08.657Z,24.70
2018-04-19T12:25:36.098Z,24.70
2018-04-19T12:28:03.602Z,24.70
2018-04-19T12:30:31.159Z,24.80
2018-04-19T12:33:01.506Z,24.80
2018-04-19T12:35:28.977Z,24.90
2018-04-19T12:37:56.662Z,25.00
2018-04-19T12:40:24.377Z,25.20
2018-04-19T12:42:51.859Z,25.20
2018-04-19T12:45:19.316Z,25.30
2018-04-19T12:47:57.433Z,25.30
2018-04-19T12:50:24.893Z,25.30
2018-04-19T12:52:52.376Z,25.20
2018-04-19T12:55:19.856Z,25.20
2018-04-19T12:57:47.613Z,25.20
2018-04-19T13:00:15.114Z,25.30
2018-04-19T13:02:46.861Z,25.50
2018-04-19T13:05:14.353Z,25.50
2018-04-19T13:07:42.037Z,25.60
2018-04-19T13:10:09.507Z,25.50
2018-04-19T13:12:36.977Z,25.40
2018-04-19T13:15:04.446Z,25.30
2018-04-19T13:17:35.410Z,25.40
2018-04-19T13:20:02.869Z,25.40
2018-04-19T13:22:32.501Z,25.50
2018-04-19T13:25:00.103Z,25.50
2018-04-19T13:27:27.588Z,25.60
2018-04-19T13:29:55.263Z,25.70
2018-04-19T13:32:22.732Z,25.70
2018-04-19T13:34:50.243Z,25.70
2018-04-19T13:37:17.718Z,25.80
2018-04-19T13:39:46.053Z,25.60
2018-04-19T13:42:13.737Z,25.60
2018-04-19T13:44:41.194Z,25.60
2018-04-19T13:47:09.607Z,25.60
2018-04-19T13:49:37.842Z,25.60
2018-04-19T13:52:05.293Z,25.60
2018-04-19T13:54:32.869Z,25.60
2018-04-19T13:57:00.325Z,25.60
2018-04-19T13:59:28.707Z,25.60
2018-04-19T14:01:56.190Z,25.60
2018-04-19T14:04:24.027Z,25.70
2018-04-19T14:06:51.528Z,25.70
2018-04-19T14:09:19.781Z,25.60
2018-04-19T14:11:48.076Z,25.60
2018-04-19T14:14:15.753Z,25.70
2018-04-19T14:16:43.974Z,25.80
2018-04-19T14:19:11.520Z,25.80
2018-04-19T14:21:38.986Z,25.90
2018-04-19T14:24:07.164Z,25.90
2018-04-19T14:26:34.639Z,25.80
2018-04-19T14:29:02.122Z,25.80
2018-04-19T14:31:30.402Z,25.70
2018-04-19T14:33:57.857Z,25.70
2018-04-19T14:36:25.350Z,25.70
2018-04-19T14:38:52.837Z,25.60
2018-04-19T14:41:20.316Z,25.60
2018-04-19T14:43:47.823Z,25.60
2018-04-19T14:46:16.513Z,25.60
2018-04-19T14:48:43.986Z,25.60
2018-04-19T14:51:11.446Z,25.70
2018-04-19T14:53:39.020Z,25.70
2018-04-19T14:56:06.499Z,25.70
2018-04-19T14:58:35.374Z,25.70
2018-04-19T15:01:02.934Z,25.70
2018-04-19T15:03:30.404Z,25.70
2018-04-19T15:05:57.952Z,25.80
2018-04-19T15:08:25.409Z,25.80
2018-04-19T15:10:52.912Z,25.90
2018-04-19T15:13:20.519Z,25.90
2018-04-19T15:15:48.582Z,25.90
2018-04-19T15:18:16.109Z,25.80
2018-04-19T15:20:43.818Z,25.90
2018-04-19T15:23:11.333Z,25.80
2018-04-19T15:25:38.818Z,25.80
2018-04-19T15:28:06.309Z,25.80
2018-04-19T15:30:33.791Z,25.80
2018-04-19T15:33:02.078Z,25.90
2018-04-19T15:35:29.580Z,25.90
2018-04-19T15:37:57.067Z,25.90
2018-04-19T15:40:24.621Z,25.90
2018-04-19T15:42:53.184Z,25.90
2018-04-19T15:45:21.589Z,25.90
2018-04-19T15:47:49.123Z,25.90
2018-04-19T15:50:16.583Z,25.80
2018-04-19T15:52:44.377Z,25.80
2018-04-19T15:55:11.881Z,25.70
2018-04-19T15:57:39.363Z,25.60
2018-04-19T16:00:06.873Z,25.60
2018-04-19T16:02:35.112Z,25.60
2018-04-19T16:05:02.616Z,25.70
2018-04-19T16:07:34.595Z,25.60
2018-04-19T16:10:02.065Z,25.60
2018-04-19T16:12:30.023Z,25.50
2018-04-19T16:14:57.477Z,25.50
2018-04-19T16:17:24.982Z,25.50
2018-04-19T16:19:53.245Z,25.40
2018-04-19T16:22:25.820Z,25.40
2018-04-19T16:24:53.350Z,25.40
2018-04-19T16:27:20.839Z,25.40
2018-04-19T16:29:48.634Z,25.40
2018-04-19T16:32:16.162Z,25.40
2018-04-19T16:34:44.001Z,25.30
2018-04-19T16:37:11.485Z,25.30
2018-04-19T16:39:42.376Z,25.30
2018-04-19T16:42:09.877Z,25.20
2018-04-19T16:44:37.332Z,25.20
2018-04-19T16:47:04.838Z,25.20
2018-04-19T16:49:34.006Z,25.10
2018-04-19T16:52:05.446Z,25.10
2018-04-19T16:54:33.845Z,25.10
2018-04-19T16:57:01.313Z,25.90
2018-04-19T16:59:28.831Z,26.90
2018-04-19T17:01:56.289Z,27.90
2018-04-19T17:04:23.896Z,28.70
2018-04-19T17:06:51.349Z,28.90
2018-04-19T17:09:19.219Z,29.30
2018-04-19T17:11:46.713Z,29.10
2018-04-19T17:14:14.187Z,29.10
2018-04-19T17:16:43.290Z,29.60
2018-04-19T17:19:12.484Z,29.40
2018-04-19T17:21:44.061Z,29.30
2018-04-19T17:24:11.541Z,29.30
2018-04-19T17:26:38.999Z,29.10
2018-04-19T17:29:07.221Z,29.30
2018-04-19T17:31:34.679Z,29.00
2018-04-19T17:34:02.190Z,28.80
2018-04-19T17:36:29.693Z,28.20
2018-04-19T17:38:57.150Z,27.80
2018-04-19T17:41:24.729Z,27.00
2018-04-19T17:43:52.212Z,26.60
2018-04-19T17:46:19.709Z,26.40
2018-04-19T17:48:47.193Z,26.10
2018-04-19T17:51:15.873Z,25.90
2018-04-19T17:53:47.676Z,25.70
2018-04-19T17:56:16.795Z,25.00
2018-04-19T17:58:44.409Z,24.90
2018-04-19T18:01:11.897Z,24.40
2018-04-19T18:03:39.358Z,23.90
2018-04-19T18:06:06.866Z,23.50
2018-04-19T18:08:36.269Z,22.90
2018-04-19T18:11:03.733Z,22.90
2018-04-19T18:13:32.043Z,22.40
2018-04-19T18:16:00.089Z,22.40
2018-04-19T18:18:28.447Z,22.00
2018-04-19T18:20:55.912Z,22.00
2018-04-19T18:23:25.087Z,21.70
2018-04-19T18:25:52.592Z,21.70
2018-04-19T18:28:20.081Z,21.60
2018-04-19T18:30:47.605Z,21.50
2018-04-19T18:33:15.833Z,21.30
2018-04-19T18:35:48.613Z,21.20
2018-04-19T18:38:19.187Z,21.20
2018-04-19T18:40:47.737Z,20.80
2018-04-19T18:43:15.829Z,20.70
2018-04-19T18:45:43.340Z,20.60
2018-04-19T18:48:10.785Z,20.30
2018-04-19T18:50:38.282Z,20.00
2018-04-19T18:53:05.736Z,19.80
2018-04-19T18:55:33.946Z,19.50
2018-04-19T18:58:01.449Z,19.50
2018-04-19T19:00:29.169Z,19.40
2018-04-19T19:02:56.662Z,19.40
2018-04-19T19:05:24.151Z,19.30
2018-04-19T19:07:51.660Z,19.20
2018-04-19T19:10:19.180Z,19.10
2018-04-19T19:12:47.575Z,19.00
2018-04-19T19:18:40.329Z,18.60
2018-04-19T19:21:07.833Z,18.50
2018-04-19T19:23:35.290Z,18.40
2018-04-19T19:26:02.778Z,18.20
2018-04-19T19:28:31.204Z,18.20
2018-04-19T19:30:59.433Z,18.20
2018-04-19T19:33:26.944Z,18.20
2018-04-19T19:35:54.469Z,18.20
2018-04-19T19:38:22.046Z,18.10
2018-04-19T19:40:50.516Z,18.10
2018-04-19T19:43:18.066Z,18.10
2018-04-19T19:45:45.732Z,18.00
2018-04-19T19:48:13.236Z,17.80
2018-04-19T19:50:40.725Z,17.70
2018-04-19T19:53:08.254Z,17.70
2018-04-19T19:55:35.717Z,17.70
2018-04-19T19:58:04.127Z,17.50
2018-04-19T20:00:31.589Z,17.40
2018-04-19T20:02:59.169Z,17.30
2018-04-19T20:05:26.672Z,17.10
2018-04-19T20:07:54.161Z,17.00
2018-04-19T20:10:21.614Z,16.80
2018-04-19T20:12:49.100Z,16.70
2018-04-19T20:15:17.478Z,16.60
2018-04-19T20:17:44.961Z,16.40
2018-04-19T20:20:12.488Z,16.30
2018-04-19T20:22:40.019Z,16.20
2018-04-19T20:25:07.497Z,16.20
2018-04-19T20:27:35.743Z,16.00
2018-04-19T20:30:03.271Z,16.00
2018-04-19T20:32:32.365Z,15.90
2018-04-19T20:34:59.857Z,15.90
2018-04-19T20:37:27.314Z,15.80
2018-04-19T20:39:57.793Z,15.70
2018-04-19T20:42:25.249Z,15.60
2018-04-19T20:44:52.725Z,15.60
2018-04-19T20:47:20.239Z,15.50
2018-04-19T20:49:47.740Z,15.50
2018-04-19T20:52:17.060Z,15.40
2018-04-19T20:54:45.418Z,15.30
2018-04-19T20:57:13.106Z,15.30
2018-04-19T20:59:40.561Z,15.20
2018-04-19T21:02:08.047Z,15.20
2018-04-19T21:04:35.547Z,15.10
2018-04-19T21:07:03.004Z,15.00
2018-04-19T21:09:30.729Z,14.90
2018-04-19T21:11:58.197Z,14.90
2018-04-19T21:14:25.704Z,14.90
2018-04-19T21:16:54.735Z,14.80
2018-04-19T21:19:22.999Z,14.70
2018-04-19T21:21:50.490Z,14.70
2018-04-19T21:24:18.403Z,14.70
2018-04-19T21:26:45.887Z,14.60
2018-04-19T21:29:13.364Z,14.60
2018-04-19T21:31:40.879Z,14.50
2018-04-19T21:34:09.876Z,14.50
2018-04-19T21:36:38.236Z,14.40
2018-04-19T21:39:05.709Z,14.40
2018-04-19T21:41:45.208Z,14.30
2018-04-19T21:44:12.668Z,14.20
2018-04-19T21:46:40.284Z,14.20
2018-04-19T21:49:07.721Z,14.20
2018-04-19T21:51:35.232Z,14.10
2018-04-19T21:54:03.452Z,14.10
2018-04-19T21:56:30.943Z,14.10
2018-04-19T21:58:58.430Z,14.00
2018-04-19T22:01:25.897Z,14.00
2018-04-19T22:03:53.391Z,13.90
2018-04-19T22:06:20.971Z,13.80
2018-04-19T22:08:48.502Z,13.80
2018-04-19T22:11:15.911Z,13.80
2018-04-19T22:13:43.398Z,13.80
2018-04-19T22:16:12.656Z,13.70
2018-04-19T22:18:40.135Z,13.70
2018-04-19T22:21:07.669Z,13.60
2018-04-19T22:23:35.201Z,13.60
2018-04-19T22:26:02.800Z,13.50
2018-04-19T22:28:31.622Z,13.40
2018-04-19T22:30:59.080Z,13.30
2018-04-19T22:33:26.568Z,13.30
2018-04-19T22:35:54.161Z,13.20
2018-04-19T22:38:21.628Z,13.20
2018-04-19T22:40:49.139Z,13.20
2018-04-19T22:43:16.703Z,13.10
2018-04-19T22:45:44.692Z,13.00
2018-04-19T22:48:12.176Z,13.00
2018-04-19T22:50:40.247Z,12.90
2018-04-19T22:53:07.726Z,12.80
2018-04-19T22:55:35.181Z,12.80
2018-04-19T22:58:02.659Z,12.70
2018-04-19T23:00:30.148Z,12.70
2018-04-19T23:02:59.026Z,12.60
2018-04-19T23:05:26.821Z,12.60
2018-04-19T23:07:54.296Z,12.50
2018-04-19T23:10:21.757Z,12.50
2018-04-19T23:12:53.150Z,12.40
2018-04-19T23:15:20.684Z,12.40
2018-04-19T23:17:48.253Z,12.30
2018-04-19T23:20:15.714Z,12.20
2018-04-19T23:22:43.193Z,12.20
2018-04-19T23:25:10.747Z,12.20
2018-04-19T23:27:43.458Z,12.20
2018-04-19T23:30:10.900Z,12.20
2018-04-19T23:32:38.401Z,12.20
2018-04-19T23:35:06.004Z,12.20
2018-04-19T23:37:33.495Z,12.20
2018-04-19T23:40:01.640Z,12.10
2018-04-19T23:42:29.129Z,12.10
2018-04-19T23:44:56.619Z,12.00
2018-04-19T23:47:24.163Z,12.00
2018-04-19T23:49:51.707Z,11.90
2018-04-19T23:52:19.167Z,11.90
2018-04-19T23:54:46.615Z,11.90
2018-04-19T23:57:14.166Z,11.80
2018-04-19T23:59:41.636Z,11.80
